• Join FlightAware (Why Join?)
  • Login
  • US Flag 
02:58PM EST


 

Airport Tracker/Info


-or-


 

Live Flight TrackerFlight Track Log ✈ N745VJ ✈ 29-Apr-2013 ✈ KCLT - KLGA

Flight Track Log - Related Links

Times and Time Zones

All times are in EDT time to prevent confusion due to time zone crossing. See the N745VJ flight status page for this flight to view local times or setup timezone preferences in your user account.

Time Position Orientation Groundspeed Altitude Reporting Facility
EDT Latitude Longitude Course Direction KTS MPH feet Rate Location/Type
06:36AM 35.2306 -80.9392 90° East 156 180 1,700  Level Atlanta Center
06:37AM 35.2944 -80.9114 20° North 239 275 4,300 2,040 Climbing Atlanta Center
06:38AM 35.2989 -80.8425 85° East 263 303 6,200 2,580 Climbing Atlanta Center
06:39AM 35.2922 -80.7436 95° East 297 342 9,100 2,640 Climbing Atlanta Center
06:40AM 35.2250 -80.5489 30° Northeast  Level FlightAware Approximate
06:40AM 35.2936 -80.6417 89° East 319 367 11,500  Level Atlanta Center
06:41AM 35.3167 -80.4726 90° East  Level FlightAware Approximate
06:42AM 35.3517 -80.4078 73° East 363 418 16,000  Level Washington Center
06:43AM 35.3903 -80.2800 70° East 376 433 18,300 1,860 Climbing Washington Center
06:44AM 35.4308 -80.1472 69° East 398 458 19,800 1,740 Climbing Washington Center
06:45AM 35.4647 -80.0217 72° East 420 483 21,900 1,980 Climbing Washington Center
06:46AM 35.5014 -79.8758 73° East 431 496 23,800 1,980 Climbing Washington Center
06:47AM 35.5378 -79.7297 73° East 440 506 25,900 1,920 Climbing Washington Center
06:48AM 35.5808 -79.5658 72° East 445 512 27,700 1,680 Climbing Washington Center
06:49AM 35.6186 -79.4325 71° East 457 526 29,300 1,620 Climbing Washington Center
06:50AM 35.6778 -79.2767 65° Northeast 457 526 31,000 1,500 Climbing Washington Center
06:51AM 35.7364 -79.1308 64° Northeast 462 532 32,400 1,440 Climbing Washington Center
06:52AM 35.7950 -78.9878 63° Northeast 462 532 34,000 1,260 Climbing Washington Center
06:53AM 35.8572 -78.8467 61° Northeast 462 532 35,000 780 Climbing Washington Center
06:54AM 35.9417 -78.7297 48° Northeast 462 532 35,600 480 Climbing Washington Center
06:55AM 36.0444 -78.6361 36° Northeast 456 525 36,000 600 Climbing Washington Center
06:56AM 36.1531 -78.5425 35° Northeast 456 525 36,900 540 Climbing Washington Center
06:57AM 36.2533 -78.4536 36° Northeast 451 519 37,100  Climbing Washington Center
06:58AM 36.3578 -78.3619 35° Northeast 451 519 37,000 -60 Descending Washington Center
06:59AM 36.4664 -78.2625 36° Northeast 466 536 37,000  Level Washington Center
07:00AM 36.5811 -78.1631 35° Northeast 483 556 37,000  Level Washington Center
07:01AM 36.6792 -78.0731 36° Northeast 489 563 37,000  Level Washington Center
07:02AM 36.8044 -77.9578 36° Northeast 494 568 37,100  Climbing Washington Center
07:03AM 36.9028 -77.8333 45° Northeast 494 568 37,000 -60 Descending Washington Center
07:04AM 36.9847 -77.6953 53° Northeast 494 568 37,000  Level Washington Center
07:05AM 37.0683 -77.5519 54° Northeast 499 574 37,000  Level Washington Center
07:06AM 37.1542 -77.4133 52° Northeast 499 574 37,000  Level Washington Center
07:07AM 37.2375 -77.2719 53° Northeast 499 574 37,000  Level Washington Center
07:08AM 37.3247 -77.1381 51° Northeast 493 567 37,000  Level Washington Center
07:09AM 37.4386 -77.0356 36° Northeast 487 560 37,100  Climbing Washington Center
07:10AM 37.5461 -76.9564 30° Northeast 487 560 37,000 -60 Descending Washington Center
07:11AM 37.6617 -76.8694 31° Northeast 488 562 37,000  Level Washington Center
07:12AM 37.7753 -76.7844 31° Northeast 482 555 37,000  Level Washington Center
07:13AM 37.8908 -76.6994 30° Northeast 482 555 37,100  Climbing Washington Center
07:14AM 38.0103 -76.6092 31° Northeast 482 555 37,000 -60 Descending Washington Center
07:15AM 38.1258 -76.5208 31° Northeast 482 555 37,000  Level Washington Center
07:16AM 38.2433 -76.4325 31° Northeast 482 555 37,000  Level Washington Center
07:17AM 38.3692 -76.3253 34° Northeast 482 555 37,000 -480 Level Washington Center
07:18AM 38.4803 -76.2203 36° Northeast 489 563 36,100 -900 Descending Washington Center
07:19AM 38.5828 -76.1256 36° Northeast 506 582 35,200 -1,560 Descending Washington Center
07:20AM 38.6958 -76.0253 35° Northeast 506 582 33,000 -2,820 Descending Washington Center
07:21AM 38.8086 -75.9192 36° Northeast 500 575 29,800 -2,820 Descending Washington Center
07:22AM 38.9194 -75.8131 37° Northeast 500 575 27,500 -1,380 Descending Washington Center
07:23AM 39.0278 -75.7144 35° Northeast 490 564 27,000 -840 Descending Washington Center
07:24AM 39.1300 -75.6131 38° Northeast 479 551 25,800 -1,260 Descending Washington Center
07:25AM 39.2258 -75.5247 36° Northeast 453 521 24,500 -1,440 Descending Washington Center
07:26AM 39.3197 -75.4386 35° Northeast 428 493 23,000 -1,800 Descending Washington Center
07:27AM 39.4069 -75.3633 34° Northeast 398 458 21,000 -2,040 Descending Washington Center
07:28AM 39.4922 -75.2878 34° Northeast 380 437 18,900 -1,500 Descending Washington Center
07:29AM 39.5692 -75.2147 36° Northeast 358 412 18,000 -900 Descending Washington Center
07:30AM 39.6461 -75.1414 36° Northeast 344 396 17,200 -720 Descending Washington Center
07:31AM 39.7228 -75.0761 33° Northeast 334 384 16,600 -900 Descending Washington Center
07:32AM 39.8100 -75.0000 34° Northeast 334 384 15,500 -1,200 Descending Washington Center
07:33AM 39.8931 -74.9289 33° Northeast 348 400 14,200 -1,440 Descending Washington Center
07:34AM 39.9833 -74.8167 44° Northeast 343 395 12,500 -1,500 Descending New York TRACON
07:35AM 40.0333 -74.7333 52° Northeast 337 388 11,000 -1,200 Descending New York TRACON
07:36AM 40.1000 -74.6500 44° Northeast 322 371 10,100 -540 Descending New York TRACON
07:37AM 40.1500 -74.5667 52° Northeast 322 371 10,000 -600 Descending New York TRACON
07:38AM 40.2167 -74.4833 44° Northeast 298 343 9,000 -1,020 Descending New York TRACON
07:40AM 40.3333 -74.3333 44° Northeast 298 343 7,000 -720 Descending New York TRACON
07:41AM 40.4000 -74.2500 44° Northeast 297 342 7,000  Level New York TRACON
07:42AM 40.4500 -74.1833 45° Northeast 299 344 7,000 -660 Level New York TRACON
07:43AM 40.5167 -74.1167 37° Northeast 295 339 5,700 -1,020 Descending New York TRACON
07:44AM 40.6000 -74.0833 17° North 279 321 5,000 -780 Descending New York TRACON
07:45AM 40.6667 -74.0500 21° North 272 313 4,200 -540 Descending New York TRACON
07:46AM 40.7333 -74.0167 21° North 264 304 4,000 -120 Descending New York TRACON
07:47AM 40.8000 -73.9833 21° North 257 296 4,000  Level New York TRACON
07:48AM 40.8667 -73.9500 21° North 260 299 4,000  Level New York TRACON
07:49AM 40.9333 -73.9167 21° North 259 298 4,000 -300 Level New York TRACON
07:50AM 40.9667 -73.8667 49° Northeast 196 226 3,500 -480 Descending New York TRACON
07:51AM 40.9667 -73.8000 90° East 178 205 3,000 -540 Descending New York TRACON